Time;durP1;ratioP1;P1;durP2;ratioP2;P2;SDS_P1;SDS_P2;PMS_P1;PMS_P2;Temp;Humidity;BMP_temperature;BMP_pressure;BME280_temperature;BME280_humidity;BME280_pressure;Samples;Min_cycle;Max_cycle;Signal;HPM_P1;HPM_P2
2023/08/14 00:02:08;;;;;;;4.47;2.60;;;20.50;99.90;;;;;;5015727;28;20034;-73
2023/08/14 00:04:34;;;;;;;4.80;2.55;;;20.50;99.90;;;;;;5015763;28;20053;-73
2023/08/14 00:07:00;;;;;;;6.20;2.58;;;20.50;99.90;;;;;;5015730;28;20511;-73
2023/08/14 00:09:25;;;;;;;3.75;2.10;;;20.50;99.90;;;;;;5015577;28;20034;-73
2023/08/14 00:11:51;;;;;;;3.30;1.73;;;20.50;99.90;;;;;;5014585;28;20389;-73
2023/08/14 00:14:17;;;;;;;4.90;2.03;;;20.40;99.90;;;;;;5014468;28;20503;-73
2023/08/14 00:16:42;;;;;;;4.43;2.30;;;20.40;99.90;;;;;;5015512;28;20022;-73
2023/08/14 00:19:08;;;;;;;3.40;1.95;;;20.40;99.90;;;;;;5014165;28;20038;-73
2023/08/14 00:21:34;;;;;;;4.10;2.03;;;20.30;99.90;;;;;;5015412;28;20479;-73
2023/08/14 00:24:00;;;;;;;6.53;2.10;;;20.20;99.90;;;;;;5015880;28;20080;-73
2023/08/14 00:26:25;;;;;;;4.35;1.92;;;20.10;99.90;;;;;;5015630;28;20476;-73
2023/08/14 00:28:51;;;;;;;3.58;1.92;;;20.00;99.90;;;;;;5015134;28;20480;-73
2023/08/14 00:31:17;;;;;;;4.72;2.10;;;19.90;99.90;;;;;;5015210;28;20500;-73
2023/08/14 00:33:42;;;;;;;3.55;2.15;;;19.70;99.90;;;;;;5015117;28;20530;-73
2023/08/14 00:36:08;;;;;;;3.45;1.90;;;19.70;99.90;;;;;;5015211;28;20049;-73
2023/08/14 00:38:34;;;;;;;3.22;2.15;;;19.60;99.90;;;;;;5015082;28;20033;-73
2023/08/14 00:40:59;;;;;;;3.13;2.22;;;19.60;99.90;;;;;;5015049;28;20503;-73
2023/08/14 00:43:25;;;;;;;4.38;2.10;;;19.60;99.90;;;;;;5015275;28;20044;-73
2023/08/14 00:45:57;;;;;;;2.30;1.70;;;19.70;99.90;;;;;;5015090;28;20026;-73
2023/08/14 00:48:24;;;;;;;3.38;2.00;;;19.80;99.90;;;;;;5015112;28;20101;-73
2023/08/14 00:50:51;;;;;;;2.85;2.13;;;19.90;99.90;;;;;;5014960;28;20026;-73
2023/08/14 00:53:18;;;;;;;5.30;1.83;;;19.90;99.90;;;;;;5014851;28;20030;-73
2023/08/14 00:55:45;;;;;;;3.40;2.20;;;20.00;99.90;;;;;;5014835;28;20022;-73
2023/08/14 00:58:11;;;;;;;3.90;1.92;;;20.00;99.90;;;;;;5015182;28;20030;-73
2023/08/14 01:00:37;;;;;;;3.97;1.80;;;20.00;99.90;;;;;;5014767;28;20046;-73
2023/08/14 01:03:03;;;;;;;3.15;1.75;;;20.00;99.90;;;;;;5014600;28;20049;-73
2023/08/14 01:05:29;;;;;;;4.40;2.13;;;19.90;99.90;;;;;;5013066;28;20022;-73
2023/08/14 01:07:55;;;;;;;3.33;2.20;;;19.90;99.90;;;;;;5013166;28;20049;-73
2023/08/14 01:10:22;;;;;;;3.25;2.08;;;19.80;99.90;;;;;;5012910;28;20030;-73
2023/08/14 01:13:31;;;;;;;3.80;2.10;;;19.80;99.90;;;;;;5014277;28;20025;-73
2023/08/14 01:16:00;;;;;;;3.70;1.90;;;19.90;99.90;;;;;;5013882;28;20017;-73
2023/08/14 01:18:28;;;;;;;3.88;2.00;;;19.90;99.90;;;;;;5014291;28;20076;-73
2023/08/14 01:21:11;;;;;;;5.10;1.77;;;19.90;99.90;;;;;;5007812;28;20029;-73
2023/08/14 01:23:55;;;;;;;4.10;1.95;;;20.00;99.90;;;;;;5014222;28;20076;-73
2023/08/14 01:26:21;;;;;;;2.70;1.70;;;20.00;99.90;;;;;;5012833;28;20480;-73
2023/08/14 01:28:47;;;;;;;2.70;1.65;;;20.00;99.90;;;;;;5013030;28;20026;-73
2023/08/14 01:31:13;;;;;;;3.83;2.00;;;20.10;99.90;;;;;;5014009;28;20484;-73
2023/08/14 01:33:38;;;;;;;3.08;2.00;;;20.00;99.90;;;;;;5013993;28;20053;-73
2023/08/14 01:36:15;;;;;;;3.28;1.92;;;20.00;99.90;;;;;;5012593;28;20435;-73
2023/08/14 01:38:59;;;;;;;4.38;1.88;;;20.00;99.90;;;;;;5013879;28;20030;-73
2023/08/14 01:41:46;;;;;;;2.88;1.98;;;20.00;99.90;;;;;;5012837;28;20068;-73
2023/08/14 01:44:17;;;;;;;3.38;1.70;;;19.90;99.90;;;;;;5014311;28;20380;-73
2023/08/14 01:46:43;;;;;;;;;;;19.90;99.90;;;;;;5014838;28;20540;-73
2023/08/14 01:49:13;;;;;;;2.85;1.90;;;19.80;99.90;;;;;;5014100;28;20323;-73
2023/08/14 01:51:40;;;;;;;2.33;1.65;;;19.70;99.90;;;;;;5013976;28;20037;-73
2023/08/14 01:54:06;;;;;;;5.22;2.20;;;19.70;99.90;;;;;;5014138;28;20417;-73
2023/08/14 01:56:31;;;;;;;2.58;1.65;;;19.70;99.90;;;;;;5013775;28;20098;-73
2023/08/14 01:58:57;;;;;;;4.70;2.70;;;19.70;99.90;;;;;;5013651;28;20109;-73
2023/08/14 02:01:23;;;;;;;5.03;3.10;;;19.60;99.90;;;;;;5012615;28;20578;-73
2023/08/14 02:03:48;;;;;;;4.18;2.90;;;19.50;99.90;;;;;;5012776;28;20113;-73
2023/08/14 02:06:14;;;;;;;4.53;3.30;;;19.50;99.90;;;;;;5012415;28;20092;-73
2023/08/14 02:08:40;;;;;;;5.15;3.15;;;19.50;99.90;;;;;;5013732;28;20033;-73
2023/08/14 02:11:09;;;;;;;4.63;3.00;;;19.50;99.90;;;;;;5012526;28;20496;-73
2023/08/14 02:13:35;;;;;;;3.30;2.50;;;19.50;99.90;;;;;;5014145;28;20022;-73
2023/08/14 02:16:01;;;;;;;3.75;2.35;;;19.50;99.90;;;;;;5013410;28;20037;-73
2023/08/14 02:18:27;;;;;;;4.78;2.22;;;19.60;99.90;;;;;;5012784;28;20021;-73
2023/08/14 02:20:53;;;;;;;2.45;1.80;;;19.60;99.90;;;;;;5013528;28;20591;-73
2023/08/14 02:23:19;;;;;;;2.78;1.90;;;19.50;99.90;;;;;;5013554;28;20511;-73
2023/08/14 02:25:45;;;;;;;2.80;1.77;;;19.50;99.90;;;;;;5013526;28;20057;-73
2023/08/14 02:28:12;;;;;;;2.70;1.80;;;19.50;99.90;;;;;;5012362;28;20109;-73
2023/08/14 02:30:41;;;;;;;3.70;1.63;;;19.60;99.90;;;;;;5013670;28;20030;-73
2023/08/14 02:33:07;;;;;;;2.72;2.00;;;19.60;99.90;;;;;;5013424;28;20037;-73
2023/08/14 02:35:34;;;;;;;2.67;1.60;;;19.70;99.90;;;;;;5013676;28;20025;-73
2023/08/14 02:38:05;;;;;;;2.50;1.50;;;19.70;99.90;;;;;;5013805;28;20383;-73
2023/08/14 02:40:31;;;;;;;2.60;1.70;;;19.70;99.90;;;;;;5013358;28;20058;-73
2023/08/14 02:42:59;;;;;;;3.35;1.85;;;19.60;99.90;;;;;;5013373;28;20092;-73
2023/08/14 02:45:25;;;;;;;2.83;1.90;;;19.50;99.90;;;;;;5013299;28;20092;-73
2023/08/14 02:47:50;;;;;;;2.90;1.70;;;19.50;99.90;;;;;;5013249;28;20042;-73
2023/08/14 02:50:16;;;;;;;4.75;1.90;;;19.40;99.90;;;;;;5011913;28;20113;-73
2023/08/14 02:52:42;;;;;;;3.75;1.95;;;19.40;99.90;;;;;;5013417;28;20030;-73
2023/08/14 02:55:08;;;;;;;4.18;1.98;;;19.30;99.90;;;;;;5013493;28;20022;-73
2023/08/14 02:57:33;;;;;;;3.60;1.90;;;19.10;99.90;;;;;;5013448;28;20050;-73
2023/08/14 02:59:59;;;;;;;2.97;1.88;;;19.00;99.90;;;;;;5012103;28;20484;-73
2023/08/14 03:02:25;;;;;;;3.00;1.75;;;18.90;99.90;;;;;;5013140;28;20369;-73
2023/08/14 03:04:50;;;;;;;4.72;1.90;;;18.90;99.90;;;;;;5013199;28;20026;-73
2023/08/14 03:07:16;;;;;;;3.67;2.03;;;18.80;99.90;;;;;;5013125;28;20369;-73
2023/08/14 03:09:42;;;;;;;3.20;1.83;;;18.70;99.90;;;;;;5013036;28;20085;-73
2023/08/14 03:12:07;;;;;;;2.60;1.75;;;18.70;99.90;;;;;;5013443;28;20026;-73
2023/08/14 03:14:33;;;;;;;3.30;1.77;;;18.60;99.90;;;;;;5013126;28;20045;-73
2023/08/14 03:16:59;;;;;;;2.60;1.80;;;18.60;99.90;;;;;;5012997;28;20109;-73
2023/08/14 03:19:24;;;;;;;2.88;1.60;;;18.60;99.90;;;;;;5012803;28;20038;-73
2023/08/14 03:21:52;;;;;;;2.83;1.88;;;18.70;99.90;;;;;;5012951;28;20030;-73
2023/08/14 03:24:18;;;;;;;3.92;1.83;;;18.70;99.90;;;;;;5011716;28;20068;-73
2023/08/14 03:26:44;;;;;;;2.78;1.75;;;18.70;99.90;;;;;;5013032;28;20057;-73
2023/08/14 03:29:09;;;;;;;3.17;1.30;;;18.80;99.90;;;;;;5015301;28;20100;-73
2023/08/14 03:31:35;;;;;;;3.15;1.52;;;18.80;99.90;;;;;;5016473;28;20018;-73
2023/08/14 03:34:01;;;;;;;3.42;1.77;;;18.80;99.90;;;;;;5016054;28;20034;-73
2023/08/14 03:36:26;;;;;;;2.78;1.58;;;18.70;99.90;;;;;;5016455;28;20026;-73
2023/08/14 03:38:52;;;;;;;3.13;1.60;;;18.70;99.90;;;;;;5016499;28;20026;-73
2023/08/14 03:41:19;;;;;;;2.75;1.67;;;18.70;99.90;;;;;;5016238;28;20440;-74
2023/08/14 03:43:45;;;;;;;2.63;1.65;;;18.60;99.90;;;;;;5016833;28;20048;-74
2023/08/14 03:46:11;;;;;;;2.58;1.60;;;18.60;99.90;;;;;;5016536;28;20141;-74
2023/08/14 03:48:37;;;;;;;3.22;1.77;;;18.50;99.90;;;;;;5014659;28;20080;-74
2023/08/14 03:51:03;;;;;;;3.85;1.80;;;18.50;99.90;;;;;;5016054;28;20026;-74
2023/08/14 03:53:29;;;;;;;3.33;1.90;;;18.50;99.90;;;;;;5023617;28;20029;-73
2023/08/14 03:55:54;;;;;;;2.70;1.80;;;18.40;99.90;;;;;;5021865;28;20018;-73
2023/08/14 03:58:20;;;;;;;3.30;1.75;;;18.40;99.90;;;;;;5015828;28;20115;-73
2023/08/14 04:00:48;;;;;;;3.30;1.70;;;18.40;99.90;;;;;;5014260;28;20026;-73
2023/08/14 04:03:14;;;;;;;4.38;1.75;;;18.40;99.90;;;;;;5014000;28;20477;-74
2023/08/14 04:05:40;;;;;;;3.40;1.80;;;18.40;99.90;;;;;;5020422;28;20032;-73
2023/08/14 04:08:07;;;;;;;4.00;1.77;;;18.50;99.90;;;;;;5014374;28;20392;-73
2023/08/14 04:10:33;;;;;;;2.10;1.50;;;18.50;99.90;;;;;;4998172;28;20053;-74
2023/08/14 04:13:00;;;;;;;4.47;1.70;;;18.50;99.90;;;;;;5014375;28;20488;-73
2023/08/14 04:15:26;;;;;;;2.42;1.42;;;18.50;99.90;;;;;;5015459;28;20030;-74
2023/08/14 04:17:52;;;;;;;2.55;1.65;;;18.50;99.90;;;;;;5015027;28;20022;-74
2023/08/14 04:20:17;;;;;;;3.13;2.00;;;18.50;99.90;;;;;;5014013;28;20037;-73
2023/08/14 04:22:43;;;;;;;3.53;1.70;;;18.40;99.90;;;;;;5016496;28;20411;-73
2023/08/14 04:25:09;;;;;;;3.17;1.90;;;18.40;99.90;;;;;;5015730;28;20065;-74
2023/08/14 04:27:38;;;;;;;3.80;1.73;;;18.40;99.90;;;;;;5014815;28;20049;-73
2023/08/14 04:30:05;;;;;;;4.03;1.95;;;18.30;99.90;;;;;;5018913;28;20092;-74
2023/08/14 04:32:31;;;;;;;2.25;1.55;;;18.40;99.90;;;;;;5015234;28;20079;-75
2023/08/14 04:34:57;;;;;;;4.10;1.60;;;18.40;99.90;;;;;;5014705;28;20034;-74
2023/08/14 04:37:23;;;;;;;3.28;1.92;;;18.50;99.90;;;;;;5015030;28;20098;-75
2023/08/14 04:39:49;;;;;;;3.08;1.77;;;18.50;99.90;;;;;;5019045;28;20026;-74
2023/08/14 04:42:14;;;;;;;2.58;1.60;;;18.50;99.90;;;;;;5013639;28;20041;-74
2023/08/14 04:44:40;;;;;;;3.80;1.88;;;18.50;99.90;;;;;;5019532;28;20112;-74
2023/08/14 04:47:06;;;;;;;3.05;1.90;;;18.50;99.90;;;;;;5014803;28;20026;-75
2023/08/14 04:49:31;;;;;;;4.43;2.03;;;18.40;99.90;;;;;;4996968;28;20030;-74
2023/08/14 04:51:57;;;;;;;2.75;2.00;;;18.40;99.90;;;;;;5013467;28;20109;-75
2023/08/14 04:54:23;;;;;;;4.28;2.10;;;18.30;99.90;;;;;;5014069;28;20025;-75
2023/08/14 04:56:48;;;;;;;3.20;1.90;;;18.30;99.90;;;;;;5014560;28;20029;-75
2023/08/14 04:59:14;;;;;;;7.50;2.42;;;18.20;99.90;;;;;;5014526;28;20045;-75
2023/08/14 05:01:40;;;;;;;3.58;1.90;;;18.30;99.90;;;;;;5013374;28;20484;-75
2023/08/14 05:04:05;;;;;;;8.20;2.38;;;18.20;99.90;;;;;;5019920;28;20033;-75
2023/08/14 05:06:31;;;;;;;4.60;2.30;;;18.40;99.90;;;;;;5032173;28;20036;-75
2023/08/14 05:08:57;;;;;;;3.28;1.67;;;18.40;99.90;;;;;;5033329;28;20048;-75
2023/08/14 05:11:22;;;;;;;5.30;1.75;;;18.50;99.90;;;;;;5033193;28;20022;-74
2023/08/14 05:13:48;;;;;;;2.83;1.77;;;18.60;99.90;;;;;;5033638;28;20098;-74
2023/08/14 05:16:13;;;;;;;2.85;1.67;;;18.60;99.90;;;;;;5032016;28;20030;-74
2023/08/14 05:18:39;;;;;;;2.60;1.75;;;18.70;99.90;;;;;;5033882;28;20044;-75
2023/08/14 05:21:05;;;;;;;3.13;1.88;;;18.80;99.90;;;;;;5034062;28;20036;-75
2023/08/14 05:23:30;;;;;;;2.50;1.73;;;18.90;99.90;;;;;;5034028;28;20075;-75
2023/08/14 05:25:56;;;;;;;3.13;1.90;;;18.90;99.90;;;;;;5033985;28;20025;-75
2023/08/14 05:28:22;;;;;;;4.63;2.00;;;18.90;99.90;;;;;;5032871;28;20403;-75
2023/08/14 05:30:47;;;;;;;3.42;1.85;;;19.00;99.90;;;;;;5033903;28;20499;-75
2023/08/14 05:33:13;;;;;;;2.75;2.08;;;19.10;99.90;;;;;;5033848;28;20033;-75
2023/08/14 05:35:39;;;;;;;3.42;2.33;;;19.10;99.90;;;;;;5032523;28;20037;-75
2023/08/14 05:38:05;;;;;;;5.07;2.42;;;19.10;99.90;;;;;;5034065;28;20039;-75
2023/08/14 05:40:31;;;;;;;6.07;2.75;;;19.20;99.90;;;;;;5033711;28;20032;-75
2023/08/14 05:43:08;;;;;;;3.58;2.78;;;19.20;99.90;;;;;;5033655;28;20017;-75
2023/08/14 05:45:35;;;;;;;3.53;2.15;;;19.30;99.90;;;;;;5032267;28;20029;-74
2023/08/14 05:48:02;;;;;;;4.47;2.08;;;19.30;99.90;;;;;;5033939;28;20025;-75
2023/08/14 05:50:28;;;;;;;3.58;2.10;;;19.30;99.90;;;;;;5033423;28;20080;-75
2023/08/14 05:52:56;;;;;;;3.35;1.88;;;19.40;99.90;;;;;;5031399;28;20496;-75
2023/08/14 05:55:22;;;;;;;4.45;2.10;;;19.40;99.90;;;;;;5033750;28;20030;-75
2023/08/14 05:57:48;;;;;;;3.13;2.22;;;19.50;99.90;;;;;;5033747;28;20028;-75
2023/08/14 06:00:15;;;;;;;4.15;2.10;;;19.50;99.90;;;;;;5033371;28;20391;-75
2023/08/14 06:02:41;;;;;;;3.67;2.20;;;19.50;99.90;;;;;;5033738;28;20426;-74
2023/08/14 06:05:08;;;;;;;3.13;2.17;;;19.60;99.90;;;;;;5033417;28;20108;-75
2023/08/14 06:07:36;;;;;;;3.53;2.15;;;19.60;99.90;;;;;;5033390;28;20060;-75
2023/08/14 06:10:04;;;;;;;4.28;2.05;;;19.70;99.90;;;;;;5033567;28;20382;-75
2023/08/14 06:12:30;;;;;;;3.83;2.60;;;19.70;99.90;;;;;;5033443;28;20018;-75
2023/08/14 06:14:56;;;;;;;3.63;2.47;;;19.80;99.90;;;;;;5033389;28;20026;-75
2023/08/14 06:17:22;;;;;;;3.50;2.30;;;19.80;99.90;;;;;;5033741;28;20498;-75
2023/08/14 06:19:48;;;;;;;6.13;2.60;;;19.80;99.90;;;;;;5031981;28;20048;-75
2023/08/14 06:22:15;;;;;;;4.18;2.75;;;19.90;99.90;;;;;;5033604;28;20036;-75
2023/08/14 06:24:41;;;;;;;4.05;2.40;;;19.90;99.90;;;;;;5033243;28;20117;-75
2023/08/14 06:27:06;;;;;;;3.97;2.55;;;20.00;99.90;;;;;;5032072;28;20057;-75
2023/08/14 06:29:32;;;;;;;3.75;2.75;;;20.00;99.90;;;;;;5033034;28;20503;-75
2023/08/14 06:31:57;;;;;;;4.13;2.10;;;20.10;99.90;;;;;;5033103;28;20528;-75
2023/08/14 06:34:23;;;;;;;5.57;2.50;;;20.20;99.90;;;;;;5033200;28;20026;-75
2023/08/14 06:36:49;;;;;;;6.40;2.80;;;20.30;99.90;;;;;;5033099;28;20361;-75
2023/08/14 06:39:15;;;;;;;5.45;2.80;;;20.40;99.90;;;;;;5032987;28;20037;-75
2023/08/14 06:41:40;;;;;;;5.22;2.83;;;20.50;99.90;;;;;;5033056;28;20076;-75
2023/08/14 06:44:11;;;;;;;7.32;2.63;;;20.60;99.90;;;;;;5033013;28;20029;-75
2023/08/14 06:46:37;;;;;;;4.10;2.25;;;20.60;99.90;;;;;;5033023;28;20025;-75
2023/08/14 06:49:03;;;;;;;5.95;2.63;;;20.70;99.90;;;;;;5032832;28;20033;-75
2023/08/14 06:51:29;;;;;;;4.05;2.65;;;20.70;99.90;;;;;;5032918;28;20128;-75
2023/08/14 06:53:55;;;;;;;3.90;2.72;;;20.70;99.90;;;;;;5033255;28;20026;-75
2023/08/14 06:56:20;;;;;;;3.00;2.58;;;20.80;99.90;;;;;;5033224;28;20083;-75
2023/08/14 06:58:46;;;;;;;4.03;2.75;;;20.80;99.90;;;;;;5033103;28;20076;-75
2023/08/14 07:01:12;;;;;;;3.65;2.60;;;20.90;99.90;;;;;;5032935;28;20033;-75
2023/08/14 07:03:38;;;;;;;3.00;2.30;;;20.90;99.90;;;;;;5034612;28;20083;-75
2023/08/14 07:06:04;;;;;;;4.70;2.60;;;20.90;99.90;;;;;;5036946;28;20495;-75
2023/08/14 07:08:30;;;;;;;3.55;2.38;;;21.00;99.90;;;;;;5036558;28;20030;-75
2023/08/14 07:10:56;;;;;;;6.00;2.42;;;21.10;99.90;;;;;;5037082;28;20021;-74
2023/08/14 07:13:22;;;;;;;5.63;2.55;;;21.10;99.90;;;;;;5036503;28;20029;-75
2023/08/14 07:15:48;;;;;;;3.10;2.47;;;21.20;99.90;;;;;;5036437;28;20017;-75
2023/08/14 07:18:15;;;;;;;4.63;2.63;;;21.20;99.90;;;;;;5036362;28;20091;-74
2023/08/14 07:20:41;;;;;;;5.53;2.80;;;21.30;99.90;;;;;;5036400;28;20035;-75
2023/08/14 07:23:07;;;;;;;3.75;2.30;;;21.30;99.90;;;;;;5036315;28;20515;-74
2023/08/14 07:25:33;;;;;;;4.50;2.70;;;21.40;99.90;;;;;;5036904;28;20037;-75
2023/08/14 07:27:59;;;;;;;3.40;2.20;;;21.40;99.90;;;;;;5038084;28;20510;-75
2023/08/14 07:30:25;;;;;;;5.72;2.42;;;21.50;99.90;;;;;;5037516;28;20040;-75
2023/08/14 07:32:50;;;;;;;3.80;2.45;;;21.60;99.90;;;;;;5037115;28;20033;-75
2023/08/14 07:35:16;;;;;;;5.43;2.40;;;21.60;99.90;;;;;;5036901;28;20050;-75
2023/08/14 07:37:42;;;;;;;3.60;2.35;;;21.70;99.90;;;;;;5036546;28;20025;-75
2023/08/14 07:40:09;;;;;;;2.85;2.15;;;21.80;99.90;;;;;;5036328;28;20026;-75
2023/08/14 07:42:34;;;;;;;4.35;2.40;;;21.90;99.90;;;;;;5036317;28;20546;-74
2023/08/14 07:45:00;;;;;;;4.03;2.67;;;21.90;99.90;;;;;;5036408;28;20030;-75
2023/08/14 07:47:26;;;;;;;4.00;2.38;;;22.00;99.90;;;;;;5036369;28;20037;-75
2023/08/14 07:49:51;;;;;;;3.45;2.15;;;22.20;99.90;;;;;;5035685;28;20036;-75
2023/08/14 07:52:17;;;;;;;3.47;2.50;;;22.30;99.90;;;;;;5036150;28;20051;-75
2023/08/14 07:54:43;;;;;;;4.28;2.30;;;22.40;99.90;;;;;;5018107;28;20064;-75
2023/08/14 07:57:08;;;;;;;6.68;2.63;;;22.50;99.90;;;;;;5036068;28;20029;-75
2023/08/14 07:59:34;;;;;;;3.35;2.40;;;22.60;99.90;;;;;;5035790;28;20029;-75
2023/08/14 08:02:00;;;;;;;4.95;2.25;;;22.60;99.90;;;;;;5034486;28;20068;-75
2023/08/14 08:04:26;;;;;;;4.00;2.33;;;22.70;99.90;;;;;;5035565;28;20025;-75
2023/08/14 08:06:52;;;;;;;3.85;2.25;;;22.80;99.90;;;;;;5034355;28;20072;-75
2023/08/14 08:09:18;;;;;;;2.55;2.00;;;22.90;99.90;;;;;;5035631;28;20035;-75
2023/08/14 08:11:44;;;;;;;4.75;2.50;;;23.10;99.90;;;;;;5034235;28;20026;-75
2023/08/14 08:14:09;;;;;;;3.88;2.50;;;23.20;99.90;;;;;;5034946;28;20029;-75
2023/08/14 08:16:36;;;;;;;4.88;2.67;;;23.30;99.90;;;;;;5035019;28;20026;-75
2023/08/14 08:19:05;;;;;;;5.00;2.70;;;23.40;99.90;;;;;;5035040;28;20045;-74
2023/08/14 08:21:32;;;;;;;3.22;2.28;;;23.50;99.90;;;;;;5035144;28;20032;-74
2023/08/14 08:23:58;;;;;;;4.70;2.60;;;23.60;99.90;;;;;;5034098;28;20028;-74
2023/08/14 08:26:24;;;;;;;4.60;2.80;;;23.80;99.90;;;;;;5035088;28;20033;-74
2023/08/14 08:28:50;;;;;;;3.83;2.78;;;23.90;99.90;;;;;;5035046;28;20029;-75
2023/08/14 08:31:16;;;;;;;5.22;2.75;;;24.00;99.90;;;;;;5035160;28;20044;-75
2023/08/14 08:33:41;;;;;;;4.90;2.80;;;24.10;99.90;;;;;;5033832;28;20028;-75
2023/08/14 08:36:07;;;;;;;4.20;3.00;;;24.20;99.90;;;;;;5034973;28;20095;-75
2023/08/14 08:38:33;;;;;;;4.22;2.67;;;24.20;99.90;;;;;;5034850;28;20021;-75
2023/08/14 08:41:01;;;;;;;3.35;2.50;;;24.30;99.90;;;;;;5034861;28;20030;-75
2023/08/14 08:43:27;;;;;;;4.55;2.72;;;24.40;99.90;;;;;;5034909;28;20109;-75
2023/08/14 08:45:58;;;;;;;3.47;2.58;;;24.50;99.90;;;;;;5033484;28;20435;-75
2023/08/14 08:48:24;;;;;;;2.97;2.65;;;24.60;99.90;;;;;;5034744;28;20029;-75
2023/08/14 08:50:51;;;;;;;4.10;2.67;;;24.70;99.90;;;;;;5034603;28;20022;-75
2023/08/14 08:53:20;;;;;;;4.47;2.70;;;24.80;99.90;;;;;;5034684;28;20033;-74
2023/08/14 08:55:47;;;;;;;5.95;2.75;;;25.00;99.90;;;;;;5034634;28;20100;-75
2023/08/14 08:58:17;;;;;;;3.08;2.58;;;25.10;99.90;;;;;;5034535;28;20029;-75
2023/08/14 09:00:43;;;;;;;4.50;2.80;;;25.20;99.90;;;;;;5034828;28;20025;-75
2023/08/14 09:03:10;;;;;;;3.47;2.60;;;25.20;99.90;;;;;;5034851;28;20029;-75
2023/08/14 09:05:36;;;;;;;4.68;2.50;;;25.30;99.90;;;;;;5034382;28;20109;-75
2023/08/14 09:08:02;;;;;;;4.20;2.92;;;25.40;99.90;;;;;;5034619;28;20494;-75
2023/08/14 09:10:28;;;;;;;3.00;2.50;;;25.50;99.90;;;;;;5033206;28;20029;-75
2023/08/14 09:12:55;;;;;;;4.25;3.00;;;25.50;99.90;;;;;;5034246;28;20029;-75
2023/08/14 09:15:23;;;;;;;3.80;2.63;;;25.60;99.90;;;;;;5034315;28;20088;-75
2023/08/14 09:17:51;;;;;;;4.18;2.70;;;25.70;99.90;;;;;;5034172;28;20087;-75
2023/08/14 09:20:18;;;;;;;5.40;2.67;;;25.80;99.90;;;;;;5034526;28;20395;-75
2023/08/14 09:22:45;;;;;;;2.83;2.50;;;25.90;99.90;;;;;;5034209;28;20031;-75
2023/08/14 09:25:11;;;;;;;3.78;2.42;;;26.00;99.90;;;;;;5034157;28;20400;-75
2023/08/14 09:27:37;;;;;;;6.28;2.83;;;26.20;99.90;;;;;;5033798;28;20053;-75
2023/08/14 09:30:06;;;;;;;5.03;2.80;;;26.20;99.90;;;;;;5032535;28;20025;-75
2023/08/14 09:32:32;;;;;;;3.40;2.67;;;26.40;99.90;;;;;;5033938;28;20566;-75
2023/08/14 09:35:02;;;;;;;4.57;2.53;;;26.50;99.90;;;;;;5033941;28;20022;-74
2023/08/14 09:37:28;;;;;;;5.40;2.70;;;26.60;99.90;;;;;;5033922;28;20387;-75
2023/08/14 09:40:14;;;;;;;3.80;3.05;;;26.60;99.90;;;;;;5034178;28;20037;-75
2023/08/14 09:42:42;;;;;;;4.35;3.28;;;26.70;99.90;;;;;;5033919;28;20025;-74
2023/08/14 09:45:08;;;;;;;6.13;3.28;;;26.80;99.90;;;;;;5033731;28;20432;-75
2023/08/14 09:47:35;;;;;;;3.38;2.78;;;26.90;99.90;;;;;;5032522;28;20056;-75
2023/08/14 09:50:01;;;;;;;5.38;3.13;;;27.00;99.90;;;;;;5033582;28;20433;-75
2023/08/14 09:52:27;;;;;;;4.45;3.40;;;27.10;99.90;;;;;;5033036;28;20524;-75
2023/08/14 09:54:54;;;;;;;4.38;2.92;;;27.20;99.90;;;;;;5033594;28;20109;-75
2023/08/14 09:57:24;;;;;;;3.47;2.72;;;27.20;99.90;;;;;;5033643;28;20025;-75
2023/08/14 09:59:51;;;;;;;5.60;3.25;;;27.40;99.90;;;;;;5033808;28;20025;-75
2023/08/14 10:02:17;;;;;;;5.05;3.05;;;27.40;99.90;;;;;;5033425;28;20026;-75
2023/08/14 10:04:46;;;;;;;3.88;3.05;;;27.50;99.90;;;;;;5033406;28;20025;-75
2023/08/14 10:07:20;;;;;;;4.50;3.20;;;27.60;99.90;;;;;;5033457;28;20033;-75
2023/08/14 10:09:49;;;;;;;;;;;27.70;99.90;;;;;;5033357;28;20026;-74
2023/08/14 10:12:16;;;;;;;;;;;27.80;99.90;;;;;;5032575;28;20037;-75
2023/08/14 10:14:47;;;;;;;;;;;27.90;99.90;;;;;;5032659;28;20034;-74
2023/08/14 10:17:16;;;;;;;;;;;28.10;99.90;;;;;;5032448;28;20286;-75
2023/08/14 10:19:42;;;;;;;;;;;28.20;99.90;;;;;;5033444;28;20290;-74
2023/08/14 10:22:08;;;;;;;;;;;28.30;99.90;;;;;;5032510;28;19988;-75
2023/08/14 10:24:38;;;;;;;;;;;28.40;99.90;;;;;;5032460;28;19963;-75
2023/08/14 10:27:06;;;;;;;;;;;28.50;99.90;;;;;;5034168;28;19905;-74
2023/08/14 10:29:32;;;;;;;;;;;28.60;99.90;;;;;;5033377;28;19945;-74
2023/08/14 10:31:59;;;;;;;;;;;28.70;99.90;;;;;;5033517;28;19959;-74
2023/08/14 10:34:25;;;;;;;;;;;28.80;99.90;;;;;;5033605;28;19909;-74
2023/08/14 10:36:51;;;;;;;;;;;28.90;99.90;;;;;;5033473;28;20287;-74
2023/08/14 10:39:18;;;;;;;;;;;29.10;99.90;;;;;;5036352;28;19905;-74
2023/08/14 10:41:44;;;;;;;;;;;29.20;99.90;;;;;;5036300;28;20481;-74
2023/08/14 10:44:11;;;;;;;;;;;29.20;99.60;;;;;;5036224;28;19995;-74
2023/08/14 10:46:43;;;;;;;;;;;29.30;98.70;;;;;;5036151;28;19905;-74
2023/08/14 10:49:12;;;;;;;;;;;29.40;98.80;;;;;;5037547;28;19912;-74
2023/08/14 10:51:39;;;;;;;;;;;29.40;97.20;;;;;;5037361;28;19912;-74
2023/08/14 10:54:11;;;;;;;;;;;29.40;97.80;;;;;;5037469;28;19912;-74
2023/08/14 10:56:45;;;;;;;;;;;29.50;97.80;;;;;;5037543;28;19931;-74
2023/08/14 10:59:20;;;;;;;;;;;29.60;97.30;;;;;;5035580;28;19969;-74
2023/08/14 11:01:49;;;;;;;;;;;29.70;97.40;;;;;;5036270;28;19952;-74
2023/08/14 11:04:14;;;;;;;;;;;29.70;95.70;;;;;;5022861;28;19906;-74
2023/08/14 11:06:58;;;;;;;;;;;29.80;94.20;;;;;;5017096;28;19909;-74
2023/08/14 11:09:33;;;;;;;;;;;29.90;93.00;;;;;;5018646;28;20364;-74
2023/08/14 11:12:05;;;;;;;;;;;30.00;92.50;;;;;;5017007;28;19945;-74
2023/08/14 11:14:30;;;;;;;;;;;30.10;93.30;;;;;;5017004;28;19912;-74
2023/08/14 11:16:56;;;;;;;;;;;30.20;93.30;;;;;;5018644;28;20003;-74
2023/08/14 11:19:22;;;;;;;;;;;30.20;91.60;;;;;;5015535;28;19917;-73
2023/08/14 11:21:50;;;;;;;;;;;30.30;91.10;;;;;;5020979;28;19993;-74
2023/08/14 11:24:16;;;;;;;;;;;30.40;91.70;;;;;;5016722;28;19912;-74
2023/08/14 11:26:41;;;;;;;;;;;30.50;92.70;;;;;;5019364;28;19999;-74
2023/08/14 11:29:07;;;;;;;;;;;30.60;92.30;;;;;;5015320;28;19925;-74
2023/08/14 11:31:32;;;;;;;;;;;30.70;91.50;;;;;;5016361;28;19909;-74
2023/08/14 11:33:59;;;;;;;;;;;30.80;92.70;;;;;;5016646;28;19915;-74
2023/08/14 11:36:24;;;;;;;;;;;30.80;91.90;;;;;;5016669;28;19905;-74
2023/08/14 11:38:53;;;;;;;;;;;30.90;91.90;;;;;;5016410;28;19912;-74
2023/08/14 11:41:18;;;;;;;;;;;31.00;92.80;;;;;;5015385;28;20295;-74
2023/08/14 11:43:45;;;;;;;;;;;31.10;93.20;;;;;;5021677;28;19916;-74
2023/08/14 11:46:11;;;;;;;;;;;31.20;93.00;;;;;;5016268;28;19912;-74
2023/08/14 11:48:38;;;;;;;;;;;31.20;93.20;;;;;;5016295;28;19913;-74
2023/08/14 11:51:04;;;;;;;;;;;31.30;92.90;;;;;;5016375;28;19909;-74
2023/08/14 11:53:30;;;;;;;;;;;31.40;92.80;;;;;;5020245;28;19905;-74
2023/08/14 11:55:56;;;;;;;;;;;31.40;91.70;;;;;;5015965;28;19917;-74
2023/08/14 11:58:21;;;;;;;;;;;31.50;92.10;;;;;;5018322;28;19916;-74
2023/08/14 12:00:50;;;;;;;;;;;31.50;92.50;;;;;;5017199;28;20374;-74
2023/08/14 12:03:16;;;;;;;;;;;31.50;92.40;;;;;;5009694;28;20356;-75
2023/08/14 12:05:44;;;;;;;;;;;31.60;92.50;;;;;;5016050;28;19905;-75
2023/08/14 12:08:11;;;;;;;;;;;31.60;92.00;;;;;;5021178;28;19945;-74
2023/08/14 12:10:38;;;;;;;;;;;31.70;91.80;;;;;;5020123;28;19955;-75
2023/08/14 12:13:04;;;;;;;;;;;31.80;91.70;;;;;;5018748;28;19913;-75
2023/08/14 12:15:30;;;;;;;;;;;31.80;91.10;;;;;;5015796;28;19909;-75
2023/08/14 12:17:55;;;;;;;;;;;31.80;91.30;;;;;;5019683;28;19909;-75
2023/08/14 12:20:22;;;;;;;;;;;31.90;89.70;;;;;;5016149;28;20013;-75
2023/08/14 12:22:47;;;;;;;;;;;32.00;88.50;;;;;;5015669;28;20380;-75
2023/08/14 12:25:17;;;;;;;;;;;32.10;89.80;;;;;;5015845;28;19944;-75
2023/08/14 12:27:42;;;;;;;;;;;32.30;89.30;;;;;;5015624;28;20322;-75
2023/08/14 12:30:10;;;;;;;;;;;32.30;86.80;;;;;;5018077;28;20008;-75
2023/08/14 12:32:36;;;;;;;;;;;32.40;87.70;;;;;;5015540;28;19916;-75
2023/08/14 12:35:01;;;;;;;;;;;32.50;87.30;;;;;;5011501;28;19925;-75
2023/08/14 12:37:27;;;;;;;;;;;32.60;86.40;;;;;;5015468;28;19909;-75
2023/08/14 12:39:54;;;;;;;;;;;32.60;83.60;;;;;;5015332;28;20271;-74
2023/08/14 12:42:20;;;;;;;;;;;32.70;82.50;;;;;;5018592;28;19909;-75
2023/08/14 12:44:45;;;;;;;;;;;32.90;85.70;;;;;;5015317;28;19905;-75
2023/08/14 12:47:11;;;;;;;;;;;33.00;83.50;;;;;;5017227;28;19909;-75
2023/08/14 12:49:36;;;;;;;;;;;33.00;83.20;;;;;;5015019;28;19936;-74
2023/08/14 12:52:02;;;;;;;;;;;33.20;82.70;;;;;;5017557;28;20398;-75
2023/08/14 12:54:28;;;;;;;;;;;33.30;81.40;;;;;;5013763;28;20287;-74
2023/08/14 12:56:54;;;;;;;;;;;33.50;81.30;;;;;;5015176;28;20399;-74
2023/08/14 12:59:20;;;;;;;;;;;33.60;79.00;;;;;;5015650;28;20300;-75
2023/08/14 13:01:45;;;;;;;;;;;33.70;76.10;;;;;;5014442;28;19909;-75
2023/08/14 13:04:11;;;;;;;;;;;33.70;75.20;;;;;;5018882;28;19931;-74